Time;durP1;ratioP1;P1;durP2;ratioP2;P2;SDS_P1;SDS_P2;PMS_P1;PMS_P2;Temp;Humidity;BMP_temperature;BMP_pressure;BME280_temperature;BME280_humidity;BME280_pressure;Samples;Min_cycle;Max_cycle;Signal;HPM_P1;HPM_P2
2022/01/14 00:01:12;;;;;;;;;;;5.40;99.90;;;;;;5137596;28;19924;-79
2022/01/14 00:03:39;;;;;;;;;;;5.40;99.90;;;;;;5137701;27;19912;-79
2022/01/14 00:06:06;;;;;;;;;;;5.40;99.90;;;;;;5130097;27;19924;-80
2022/01/14 00:08:33;;;;;;;;;;;5.40;99.90;;;;;;5124186;28;19924;-79
2022/01/14 00:11:00;;;;;;;;;;;5.40;99.90;;;;;;5123427;28;19947;-79
2022/01/14 00:13:48;;;;;;;;;;;5.40;99.90;;;;;;5123105;28;20390;-79
2022/01/14 00:16:15;;;;;;;;;;;5.50;99.90;;;;;;5122280;28;19924;-79
2022/01/14 00:18:41;;;;;;;;;;;5.40;99.90;;;;;;5122693;28;19923;-80
2022/01/14 00:21:09;;;;;;;;;;;5.40;99.90;;;;;;5122309;28;19967;-79
2022/01/14 00:23:39;;;;;;;;;;;5.40;99.90;;;;;;5121374;27;19975;-78
2022/01/14 00:31:44;;;;;;;;;;;5.40;99.90;;;;;;5120492;28;19979;-78
2022/01/14 00:34:11;;;;;;;;;;;5.30;99.90;;;;;;5120529;28;19928;-78
2022/01/14 00:36:40;;;;;;;;;;;5.40;99.90;;;;;;5122442;28;20432;-79
2022/01/14 00:39:07;;;;;;;;;;;5.50;99.90;;;;;;5122589;27;19977;-78
2022/01/14 00:41:34;;;;;;;;;;;5.50;99.90;;;;;;5121649;28;19967;-77
2022/01/14 00:44:02;;;;;;;;;;;5.50;99.90;;;;;;5127479;28;19946;-79
2022/01/14 00:46:29;;;;;;;;;;;5.40;99.90;;;;;;5122171;28;19938;-78
2022/01/14 00:48:56;;;;;;;;;;;5.50;99.90;;;;;;5122552;28;20390;-78
2022/01/14 00:51:22;;;;;;;;;;;5.50;99.90;;;;;;5125293;28;19973;-78
2022/01/14 00:53:50;;;;;;;;;;;5.50;99.90;;;;;;5124099;28;19924;-77
2022/01/14 00:56:26;;;;;;;;;;;5.50;99.90;;;;;;5127088;28;19924;-77
2022/01/14 01:01:37;;;;;;;;;;;5.50;99.90;;;;;;5125880;28;19973;-78
2022/01/14 01:04:03;;;;;;;;;;;5.50;99.90;;;;;;5125545;28;19959;-78
2022/01/14 01:06:30;;;;;;;;;;;5.50;99.90;;;;;;5127087;28;19924;-78
2022/01/14 01:08:58;;;;;;;;;;;5.50;99.90;;;;;;5125356;28;19930;-78
2022/01/14 01:11:28;;;;;;;;;;;5.50;99.90;;;;;;5130122;28;19930;-78
2022/01/14 01:14:02;;;;;;;;;;;5.50;99.90;;;;;;5130632;28;19923;-78
2022/01/14 01:16:28;;;;;;;;;;;5.50;99.90;;;;;;5129011;28;19928;-78
2022/01/14 01:18:55;;;;;;;;;;;5.50;99.90;;;;;;5121383;28;19978;-78
2022/01/14 01:21:21;;;;;;;;;;;5.50;99.90;;;;;;5122485;28;19924;-79
2022/01/14 01:23:48;;;;;;;;;;;5.50;99.90;;;;;;5123571;28;19959;-78
2022/01/14 01:26:22;;;;;;;;;;;5.50;99.90;;;;;;5121841;28;20270;-79
2022/01/14 01:28:59;;;;;;;;;;;5.50;99.90;;;;;;5120231;28;19935;-79
2022/01/14 01:31:42;;;;;;;;;;;5.50;99.90;;;;;;5120942;28;20298;-79
2022/01/14 01:34:10;;;;;;;;;;;5.50;99.90;;;;;;5120070;28;20329;-79
2022/01/14 01:36:37;;;;;;;;;;;5.50;99.90;;;;;;5119777;28;19967;-78
2022/01/14 01:39:05;;;;;;;;;;;5.50;99.90;;;;;;5118611;28;19974;-78
2022/01/14 01:41:34;;;;;;;;;;;5.50;99.90;;;;;;5128672;28;19993;-77
2022/01/14 01:44:01;;;;;;;;;;;5.50;99.90;;;;;;5128932;28;20343;-77
2022/01/14 01:46:28;;;;;;;;;;;5.60;99.90;;;;;;5128977;28;19923;-78
2022/01/14 01:48:54;;;;;;;;;;;5.50;99.90;;;;;;5126650;28;19924;-79
2022/01/14 01:51:21;;;;;;;;;;;5.50;99.90;;;;;;5121793;28;19963;-79
2022/01/14 01:53:48;;;;;;;;;;;5.50;99.90;;;;;;5121501;28;19970;-79
2022/01/14 01:56:15;;;;;;;;;;;5.50;99.90;;;;;;5119499;28;19923;-79
2022/01/14 01:58:43;;;;;;;;;;;5.50;99.90;;;;;;5119523;28;19969;-79
2022/01/14 02:01:10;;;;;;;;;;;5.50;99.90;;;;;;5118676;28;19975;-78
2022/01/14 02:03:37;;;;;;;;;;;5.50;99.90;;;;;;5117763;28;20426;-79
2022/01/14 02:06:04;;;;;;;;;;;5.50;99.90;;;;;;5118113;28;19923;-79
2022/01/14 02:08:30;;;;;;;;;;;5.50;99.90;;;;;;5118706;28;19924;-77
2022/01/14 02:10:58;;;;;;;;;;;5.60;99.90;;;;;;5125373;28;19924;-77
2022/01/14 02:13:25;;;;;;;;;;;5.60;99.90;;;;;;5124709;28;20323;-77
2022/01/14 02:16:15;;;;;;;;;;;5.60;99.90;;;;;;5126086;28;19924;-77
2022/01/14 02:18:49;;;;;;;;;;;5.60;99.90;;;;;;5118745;28;19994;-79
2022/01/14 02:24:32;;;;;;;;;;;5.60;99.90;;;;;;5035291;28;19932;-78
2022/01/14 02:26:58;;;;;;;;;;;5.60;99.90;;;;;;5122449;28;19988;-78
2022/01/14 02:29:25;;;;;;;;;;;5.60;99.90;;;;;;5134193;28;19924;-78
2022/01/14 02:31:51;;;;;;;;;;;5.60;99.90;;;;;;5134543;28;19993;-78
2022/01/14 02:34:18;;;;;;;;;;;5.50;99.90;;;;;;5123958;28;19965;-78
2022/01/14 02:36:46;;;;;;;;;;;5.60;99.90;;;;;;5120471;28;19924;-79
2022/01/14 02:39:14;;;;;;;;;;;5.60;99.90;;;;;;5119486;28;19977;-79
2022/01/14 02:41:42;;;;;;;;;;;5.50;99.90;;;;;;5121220;28;19963;-78
2022/01/14 02:44:10;;;;;;;;;;;5.50;99.90;;;;;;5125752;28;19924;-79
2022/01/14 02:46:41;;;;;;;;;;;5.50;99.90;;;;;;5119803;28;20320;-79
2022/01/14 02:49:07;;;;;;;;;;;5.50;99.90;;;;;;5119248;28;19924;-79
2022/01/14 02:51:34;;;;;;;;;;;5.50;99.90;;;;;;5118488;28;19928;-79
2022/01/14 02:54:12;;;;;;;;;;;5.50;99.90;;;;;;5124658;28;19923;-78
2022/01/14 02:56:39;;;;;;;;;;;5.50;99.90;;;;;;5129279;28;19947;-78
2022/01/14 02:59:06;;;;;;;;;;;5.50;99.90;;;;;;5123979;28;20394;-79
2022/01/14 03:01:33;;;;;;;;;;;5.40;99.90;;;;;;5118490;28;19972;-79
2022/01/14 03:04:00;;;;;;;;;;;5.50;99.90;;;;;;5117039;28;19978;-79
2022/01/14 03:06:28;;;;;;;;;;;5.40;99.90;;;;;;5118889;28;19976;-79
2022/01/14 03:08:55;;;;;;;;;;;5.40;99.90;;;;;;5118284;28;19931;-79
2022/01/14 03:11:26;;;;;;;;;;;5.40;99.90;;;;;;5118323;28;19974;-79
2022/01/14 03:13:53;;;;;;;;;;;5.40;99.90;;;;;;5118751;28;19978;-79
2022/01/14 03:16:20;;;;;;;;;;;5.40;99.90;;;;;;5117723;28;19952;-78
2022/01/14 03:18:50;;;;;;;;;;;5.40;99.90;;;;;;5122099;28;19954;-79
2022/01/14 03:21:25;;;;;;;;;;;5.40;99.90;;;;;;5125465;28;19923;-77
2022/01/14 03:24:02;;;;;;;;;;;5.30;99.90;;;;;;5121050;28;19924;-78
2022/01/14 03:26:30;;;;;;;;;;;5.30;99.90;;;;;;5120765;28;19946;-77
2022/01/14 03:28:57;;;;;;;;;;;5.30;99.90;;;;;;5125285;28;19924;-78
2022/01/14 03:31:23;;;;;;;;;;;5.20;99.90;;;;;;5118901;28;19967;-79
2022/01/14 03:33:50;;;;;;;;;;;5.20;99.90;;;;;;5125028;28;19963;-77
2022/01/14 03:36:16;;;;;;;;;;;5.20;99.90;;;;;;5125370;28;19935;-77
2022/01/14 03:38:43;;;;;;;;;;;5.20;99.90;;;;;;5120963;28;19967;-79
2022/01/14 03:41:09;;;;;;;;;;;5.20;99.90;;;;;;5117269;28;19924;-78
2022/01/14 03:43:38;;;;;;;;;;;5.20;99.90;;;;;;5115713;28;19924;-77
2022/01/14 03:46:05;;;;;;;;;;;5.20;99.90;;;;;;5116112;28;19924;-78
2022/01/14 03:48:31;;;;;;;;;;;5.20;99.90;;;;;;5116533;28;20028;-78
2022/01/14 03:50:58;;;;;;;;;;;5.20;99.90;;;;;;5117312;28;19955;-78
2022/01/14 03:53:24;;;;;;;;;;;5.20;99.90;;;;;;5116149;28;19931;-80
2022/01/14 03:55:50;;;;;;;;;;;5.20;99.90;;;;;;5124768;28;19931;-77
2022/01/14 03:58:17;;;;;;;;;;;5.20;99.90;;;;;;5127866;28;20287;-77
2022/01/14 04:00:45;;;;;;;;;;;5.20;99.90;;;;;;5126552;28;19963;-77
2022/01/14 04:03:11;;;;;;;;;;;5.20;99.90;;;;;;5120392;28;20306;-78
2022/01/14 04:05:38;;;;;;;;;;;5.20;99.90;;;;;;5116839;28;19971;-78
2022/01/14 04:08:05;;;;;;;;;;;5.70;99.90;;;;;;5117130;28;19967;-79
2022/01/14 04:10:31;;;;;;;;;;;5.20;99.90;;;;;;5116612;28;19973;-78
2022/01/14 04:12:59;;;;;;;;;;;5.20;99.90;;;;;;5116404;28;19949;-79
2022/01/14 04:15:38;;;;;;;;;;;5.20;99.90;;;;;;5120578;28;19923;-79
2022/01/14 04:18:07;;;;;;;;;;;5.20;99.90;;;;;;5121204;28;19953;-79
2022/01/14 04:20:34;;;;;;;;;;;5.10;99.90;;;;;;5120658;28;19924;-79
2022/01/14 04:23:01;;;;;;;;;;;5.10;99.90;;;;;;5121606;28;19923;-79
2022/01/14 04:25:27;;;;;;;;;;;5.20;99.90;;;;;;5121355;28;19923;-79
2022/01/14 04:27:55;;;;;;;;;;;5.20;99.90;;;;;;5121364;28;20369;-79
2022/01/14 04:30:22;;;;;;;;;;;5.20;99.90;;;;;;5124464;28;20276;-78
2022/01/14 04:32:48;;;;;;;;;;;5.20;99.90;;;;;;5126784;28;19950;-79
2022/01/14 04:35:16;;;;;;;;;;;5.20;99.90;;;;;;5125519;28;19946;-78
2022/01/14 04:37:43;;;;;;;;;;;5.20;99.90;;;;;;5121194;28;20002;-78
2022/01/14 04:40:10;;;;;;;;;;;5.10;99.90;;;;;;5121127;28;19931;-79
2022/01/14 04:42:37;;;;;;;;;;;5.20;99.90;;;;;;5130230;27;19935;-77
2022/01/14 04:45:04;;;;;;;;;;;5.20;99.90;;;;;;5134356;28;19928;-77
2022/01/14 04:47:32;;;;;;;;;;;5.20;99.90;;;;;;5127322;28;19928;-79
2022/01/14 04:49:58;;;;;;;;;;;5.20;99.90;;;;;;5120381;28;20066;-78
2022/01/14 04:52:26;;;;;;;;;;;5.20;99.90;;;;;;5120616;28;19986;-79
2022/01/14 04:54:53;;;;;;;;;;;5.20;99.90;;;;;;5120506;28;19947;-78
2022/01/14 04:57:21;;;;;;;;;;;5.20;99.90;;;;;;5130955;28;19924;-77
2022/01/14 04:59:48;;;;;;;;;;;5.20;99.90;;;;;;5135329;28;19911;-77
2022/01/14 05:02:14;;;;;;;;;;;5.20;99.90;;;;;;5128850;28;19931;-78
2022/01/14 05:04:42;;;;;;;;;;;5.20;99.90;;;;;;5126183;27;19963;-78
2022/01/14 05:07:13;;;;;;;;;;;5.20;99.90;;;;;;5125007;28;19930;-78
2022/01/14 05:09:42;;;;;;;;;;;5.20;99.90;;;;;;5121738;28;19927;-79
2022/01/14 05:12:10;;;;;;;;;;;5.20;99.90;;;;;;5120289;28;20018;-79
2022/01/14 05:14:36;;;;;;;;;;;5.30;99.90;;;;;;5119896;28;19946;-79
2022/01/14 05:17:03;;;;;;;;;;;5.30;99.90;;;;;;5119639;28;19936;-79
2022/01/14 05:19:30;;;;;;;;;;;5.30;99.90;;;;;;5120148;28;19963;-79
2022/01/14 05:21:56;;;;;;;;;;;5.20;99.90;;;;;;5119871;28;19928;-79
2022/01/14 05:24:24;;;;;;;;;;;5.20;99.90;;;;;;5119563;28;19924;-79
2022/01/14 05:26:52;;;;;;;;;;;5.20;99.90;;;;;;5119403;28;19927;-78
2022/01/14 05:29:44;;;;;;;;;;;5.20;99.90;;;;;;5148667;22;20262;-81
2022/01/14 05:32:20;;;;;;;;;;;5.10;99.90;;;;;;5098906;28;20370;-82
2022/01/14 05:35:18;;;;;;;;;;;5.20;99.90;;;;;;5118635;28;19949;-83
2022/01/14 05:37:52;;;;;;;;;;;7.00;99.90;;;;;;5076909;28;19975;-82
2022/01/14 05:40:30;;;;;;;;;;;5.20;99.90;;;;;;5119976;28;19924;-82
2022/01/14 05:43:20;;;;;;;;;;;5.60;99.90;;;;;;5122493;28;19946;-82
2022/01/14 05:46:04;;;;;;;;;;;5.10;99.90;;;;;;5120426;28;19924;-82
2022/01/14 05:48:40;;;;;;;;;;;5.20;99.90;;;;;;5120154;28;20387;-82
2022/01/14 05:51:36;;;;;;;;;;;4.70;99.90;;;;;;5119812;28;19959;-80
2022/01/14 05:54:27;;;;;;;;;;;5.20;99.90;;;;;;5121394;28;19928;-82
2022/01/14 05:56:57;;;;;;;;;;;5.20;99.90;;;;;;5121701;28;19963;-82
2022/01/14 06:02:11;;;;;;;;;;;5.80;99.90;;;;;;5120546;28;20018;-80
2022/01/14 06:04:52;;;;;;;;;;;5.10;99.90;;;;;;5123221;28;19931;-81
2022/01/14 06:07:33;;;;;;;;;;;5.10;99.90;;;;;;5123607;28;19966;-79
2022/01/14 06:16:23;;;;;;;;;;;5.00;99.90;;;;;;5113978;28;20453;-82
2022/01/14 06:18:57;;;;;;;;;;;5.90;99.90;;;;;;5117994;28;19924;-82
2022/01/14 06:21:34;;;;;;;;;;;5.80;99.90;;;;;;5119772;28;19924;-82
2022/01/14 06:24:13;;;;;;;;;;;5.00;99.90;;;;;;5119700;28;19931;-82
2022/01/14 06:26:51;;;;;;;;;;;5.00;99.90;;;;;;5128278;28;19924;-82
2022/01/14 06:29:18;;;;;;;;;;;4.70;99.90;;;;;;5125045;28;19930;-83
2022/01/14 06:34:35;;;;;;;;;;;4.80;99.90;;;;;;5102132;28;19981;-82
2022/01/14 06:37:04;;;;;;;;;;;4.80;99.90;;;;;;5126596;28;19937;-80
2022/01/14 06:39:47;;;;;;;;;;;4.90;99.90;;;;;;5129714;28;19991;-80
2022/01/14 06:42:16;;;;;;;;;;;5.70;99.90;;;;;;5125996;28;19934;-82
2022/01/14 06:45:01;;;;;;;;;;;4.90;99.90;;;;;;5124141;28;19928;-81
2022/01/14 06:47:31;;;;;;;;;;;4.60;99.90;;;;;;5122399;28;20398;-81
2022/01/14 06:53:07;;;;;;;;;;;5.00;99.90;;;;;;5075114;28;19928;-82
2022/01/14 06:55:38;;;;;;;;;;;3.30;99.90;;;;;;5064557;28;19951;-81
2022/01/14 06:58:29;;;;;;;;;;;5.00;99.90;;;;;;5117624;28;19925;-82
2022/01/14 07:01:02;;;;;;;;;;;6.10;99.90;;;;;;5118792;28;19927;-82
2022/01/14 07:03:37;;;;;;;;;;;5.10;99.90;;;;;;5118860;28;19923;-82
2022/01/14 07:06:17;;;;;;;;;;;;;;;;;;;;;
2022/01/14 07:08:57;;;;;;;;;;;5.10;99.90;;;;;;5129720;28;19924;-79
2022/01/14 07:11:37;;;;;;;;;;;5.20;99.90;;;;;;5125214;28;19923;-79
2022/01/14 07:14:13;;;;;;;;;;;5.30;99.90;;;;;;5119958;28;19928;-81
2022/01/14 07:16:50;;;;;;;;;;;5.00;99.90;;;;;;5126808;28;19923;-79
2022/01/14 07:19:22;;;;;;;;;;;5.10;99.90;;;;;;5128674;28;19924;-79
2022/01/14 07:21:49;;;;;;;;;;;5.10;99.90;;;;;;5128810;28;19923;-80
2022/01/14 07:24:17;;;;;;;;;;;5.20;99.90;;;;;;5128582;28;19948;-80
2022/01/14 07:26:52;;;;;;;;;;;5.20;99.90;;;;;;5127316;28;19924;-79
2022/01/14 07:29:26;;;;;;;;;;;5.10;99.90;;;;;;5122729;28;19923;-82
2022/01/14 07:31:59;;;;;;;;;;;5.20;99.90;;;;;;5130924;28;19980;-78
2022/01/14 07:34:28;;;;;;;;;;;5.20;99.90;;;;;;5130851;28;19930;-80
2022/01/14 07:39:57;;;;;;;;;;;5.20;99.90;;;;;;5127553;28;19947;-82
2022/01/14 07:42:33;;;;;;;;;;;8.10;99.90;;;;;;5130987;28;19924;-80
2022/01/14 07:45:09;;;;;;;;;;;5.10;99.90;;;;;;5132867;28;19924;-80
2022/01/14 07:47:49;;;;;;;;;;;5.10;99.90;;;;;;5128355;28;19930;-78
2022/01/14 07:50:21;;;;;;;;;;;5.20;99.90;;;;;;5128408;28;19967;-78
2022/01/14 07:52:53;;;;;;;;;;;5.30;99.90;;;;;;5133881;28;19924;-81
2022/01/14 07:55:22;;;;;;;;;;;6.60;99.90;;;;;;5131113;28;19950;-83
2022/01/14 07:57:58;;;;;;;;;;;5.20;99.90;;;;;;5121744;28;19949;-82
2022/01/14 08:06:10;;;;;;;;;;;6.10;99.90;;;;;;5117941;28;19924;-83
2022/01/14 08:08:49;;;;;;;;;;;5.30;99.90;;;;;;5127799;28;20026;-82
2022/01/14 08:11:20;;;;;;;;;;;5.20;99.90;;;;;;5125889;28;19923;-83
2022/01/14 08:13:52;;;;;;;;;;;5.30;99.90;;;;;;5127354;28;19924;-82
2022/01/14 08:16:31;;;;;;;;;;;5.20;99.90;;;;;;5138150;28;19924;-81
2022/01/14 08:19:32;;;;;;;;;;;5.30;99.90;;;;;;5133555;27;19931;-80
2022/01/14 08:22:05;;;;;;;;;;;5.30;99.90;;;;;;5125983;28;19979;-82
2022/01/14 08:24:33;;;;;;;;;;;5.40;99.90;;;;;;5140117;28;19929;-79
2022/01/14 08:27:01;;;;;;;;;;;5.30;99.90;;;;;;5134458;28;19924;-83
2022/01/14 08:29:32;;;;;;;;;;;5.30;99.90;;;;;;5131582;28;19946;-82
2022/01/14 08:31:58;;;;;;;;;;;5.30;99.90;;;;;;5128432;28;19983;-84
2022/01/14 08:34:27;;;;;;;;;;;5.30;99.90;;;;;;5132065;28;19923;-83
2022/01/14 08:36:54;;;;;;;;;;;5.30;99.90;;;;;;5129423;28;19981;-84
2022/01/14 08:39:20;;;;;;;;;;;5.30;99.90;;;;;;5131526;28;19930;-81
2022/01/14 08:45:07;;;;;;;;;;;5.40;99.90;;;;;;5128042;28;19924;-79
2022/01/14 08:47:36;;;;;;;;;;;5.80;99.90;;;;;;5128863;28;19980;-80
2022/01/14 08:50:02;;;;;;;;;;;5.30;99.90;;;;;;5128897;28;19923;-79
2022/01/14 08:55:15;;;;;;;;;;;5.20;99.90;;;;;;5132674;28;19924;-82
2022/01/14 08:57:44;;;;;;;;;;;5.20;99.90;;;;;;5140375;28;19924;-80
2022/01/14 09:00:18;;;;;;;;;;;5.20;99.90;;;;;;5139769;28;19912;-81
2022/01/14 09:02:46;;;;;;;;;;;5.30;99.90;;;;;;5127465;28;19924;-82
2022/01/14 09:05:13;;;;;;;;;;;5.90;99.90;;;;;;5126391;28;19923;-81
2022/01/14 09:07:40;;;;;;;;;;;5.30;99.90;;;;;;5126876;28;19924;-83
2022/01/14 09:10:13;;;;;;;;;;;7.60;99.90;;;;;;5124423;28;20382;-84
2022/01/14 09:12:40;;;;;;;;;;;4.60;99.90;;;;;;5124052;28;19977;-81
2022/01/14 09:15:07;;;;;;;;;;;5.30;99.90;;;;;;5124272;28;19924;-84
2022/01/14 09:17:38;;;;;;;;;;;5.30;99.90;;;;;;5123038;28;19923;-82
2022/01/14 09:20:06;;;;;;;;;;;5.30;99.90;;;;;;5124007;28;19924;-83
2022/01/14 09:22:34;;;;;;;;;;;5.40;99.90;;;;;;5123800;28;19924;-81
2022/01/14 09:25:03;;;;;;;;;;;5.60;99.90;;;;;;5122216;28;19923;-83
2022/01/14 09:27:47;;;;;;;;;;;5.40;99.90;;;;;;5122922;28;20279;-82
2022/01/14 09:30:20;;;;;;;;;;;5.40;99.90;;;;;;5122708;28;19928;-81
2022/01/14 09:32:52;;;;;;;;;;;4.70;99.90;;;;;;5121964;28;19963;-80
2022/01/14 09:35:19;;;;;;;;;;;5.60;99.90;;;;;;5122165;28;19930;-79
2022/01/14 09:37:46;;;;;;;;;;;5.50;99.90;;;;;;5123557;28;20044;-80
2022/01/14 09:40:24;;;;;;;;;;;5.50;99.90;;;;;;5125784;28;19924;-79
2022/01/14 09:42:59;;;;;;;;;;;5.80;99.90;;;;;;5125287;28;19923;-80
2022/01/14 09:45:28;;;;;;;;;;;5.50;99.90;;;;;;5125207;28;19946;-82
2022/01/14 09:48:02;;;;;;;;;;;5.50;99.90;;;;;;5125781;28;19923;-79
2022/01/14 09:50:29;;;;;;;;;;;6.70;99.90;;;;;;5127399;28;19923;-79
2022/01/14 09:52:55;;;;;;;;;;;5.40;99.90;;;;;;5131614;28;19935;-81
2022/01/14 09:55:23;;;;;;;;;;;5.50;99.90;;;;;;5134181;28;19924;-80
2022/01/14 09:57:52;;;;;;;;;;;5.60;99.90;;;;;;5131799;28;20421;-80
2022/01/14 10:00:18;;;;;;;;;;;5.60;99.90;;;;;;5132303;28;19995;-80
2022/01/14 10:02:45;;;;;;;;;;;5.60;99.90;;;;;;5131960;28;19924;-80
2022/01/14 10:05:30;;;;;;;;;;;5.70;99.90;;;;;;5131242;28;19923;-80
2022/01/14 10:08:16;;;;;;;;;;;5.70;99.90;;;;;;5128347;28;20408;-80
2022/01/14 10:10:45;;;;;;;;;;;5.70;99.90;;;;;;5129000;28;19924;-81
2022/01/14 10:13:13;;;;;;;;;;;5.00;99.90;;;;;;5131206;28;19924;-79
2022/01/14 10:15:47;;;;;;;;;;;5.60;99.90;;;;;;5124037;28;20323;-79
2022/01/14 10:18:14;;;;;;;;;;;5.80;99.90;;;;;;5124807;28;19924;-79
2022/01/14 10:20:43;;;;;;;;;;;5.50;99.90;;;;;;5123729;28;19928;-82
2022/01/14 10:23:12;;;;;;;;;;;5.80;99.90;;;;;;5125096;28;19924;-80
2022/01/14 10:25:39;;;;;;;;;;;5.70;99.90;;;;;;5126619;28;19931;-82
2022/01/14 10:28:20;;;;;;;;;;;5.80;99.90;;;;;;5131726;28;19924;-79
2022/01/14 10:30:47;;;;;;;;;;;5.80;99.90;;;;;;5130626;28;19924;-82
2022/01/14 10:33:15;;;;;;;;;;;5.70;99.90;;;;;;5125042;28;19927;-81
2022/01/14 10:35:46;;;;;;;;;;;5.90;99.90;;;;;;5122589;28;19924;-80
2022/01/14 10:38:13;;;;;;;;;;;5.90;99.90;;;;;;5122782;28;19924;-83
2022/01/14 10:40:45;;;;;;;;;;;5.90;99.90;;;;;;5122174;28;19924;-79
2022/01/14 10:43:12;;;;;;;;;;;5.80;99.90;;;;;;5122818;28;19930;-80
2022/01/14 10:45:42;;;;;;;;;;;5.70;99.90;;;;;;5122325;27;21911;-79
2022/01/14 10:48:10;;;;;;;;;;;6.10;99.90;;;;;;5123455;28;20057;-81
2022/01/14 10:50:38;;;;;;;;;;;6.30;99.90;;;;;;5122412;28;19923;-80
2022/01/14 10:53:10;;;;;;;;;;;5.90;99.90;;;;;;5121653;28;20357;-79
2022/01/14 10:55:38;;;;;;;;;;;5.80;99.90;;;;;;5128335;28;19924;-80
2022/01/14 10:58:08;;;;;;;;;;;6.10;99.90;;;;;;5125874;28;20037;-80
2022/01/14 11:00:39;;;;;;;;;;;6.10;99.90;;;;;;5126179;28;20397;-83
2022/01/14 11:03:05;;;;;;;;;;;6.10;99.90;;;;;;5122801;28;19923;-80
2022/01/14 11:05:33;;;;;;;;;;;6.10;99.90;;;;;;5120445;28;19924;-82
2022/01/14 11:08:00;;;;;;;;;;;6.20;99.90;;;;;;5120649;28;19977;-80
2022/01/14 11:10:33;;;;;;;;;;;6.10;99.90;;;;;;5127339;28;19924;-79
2022/01/14 11:13:00;;;;;;;;;;;6.20;99.90;;;;;;5123581;28;19953;-80
2022/01/14 11:15:28;;;;;;;;;;;6.30;99.90;;;;;;5128514;28;19930;-82
2022/01/14 11:17:56;;;;;;;;;;;6.30;99.90;;;;;;5128666;28;19931;-82
2022/01/14 11:20:30;;;;;;;;;;;6.30;99.90;;;;;;5120378;28;19951;-80
2022/01/14 11:23:14;;;;;;;;;;;6.30;99.90;;;;;;5122665;28;19930;-80
2022/01/14 11:25:45;;;;;;;;;;;6.30;99.90;;;;;;5127239;28;19931;-83
2022/01/14 11:28:12;;;;;;;;;;;6.30;99.90;;;;;;5151751;22;19923;-80
2022/01/14 11:30:40;;;;;;;;;;;6.40;99.90;;;;;;5102892;28;19908;-80
2022/01/14 11:33:07;;;;;;;;;;;6.40;99.90;;;;;;5102266;28;19925;-80
2022/01/14 11:35:35;;;;;;;;;;;6.40;99.90;;;;;;5102184;28;19931;-80
2022/01/14 11:38:02;;;;;;;;;;;6.40;99.90;;;;;;5101441;28;19931;-80
2022/01/14 11:40:47;;;;;;;;;;;6.40;99.90;;;;;;5099515;28;19924;-80
2022/01/14 11:43:38;;;;;;;;;;;6.40;99.90;;;;;;5089750;28;19993;-80
2022/01/14 11:46:04;;;;;;;;;;;6.40;99.90;;;;;;5086695;28;20444;-81
2022/01/14 11:48:32;;;;;;;;;;;6.40;99.90;;;;;;5085957;28;19926;-80
2022/01/14 11:51:00;;;;;;;;;;;6.50;99.90;;;;;;5085650;28;19925;-80
2022/01/14 11:53:35;;;;;;;;;;;6.50;99.90;;;;;;5084707;28;19924;-80
2022/01/14 11:56:02;;;;;;;;;;;6.50;99.90;;;;;;5083543;28;19932;-80
2022/01/14 11:58:29;;;;;;;;;;;6.50;99.90;;;;;;5082871;28;20041;-80
2022/01/14 12:00:56;;;;;;;;;;;6.50;99.90;;;;;;5083112;28;20260;-81
2022/01/14 12:03:28;;;;;;;;;;;6.50;99.90;;;;;;5082959;28;20310;-81
2022/01/14 12:05:56;;;;;;;;;;;6.50;99.90;;;;;;5092812;28;19984;-80
2022/01/14 12:08:23;;;;;;;;;;;6.50;99.90;;;;;;5091003;28;19925;-79
2022/01/14 12:10:51;;;;;;;;;;;6.50;99.90;;;;;;5084810;28;19929;-80
2022/01/14 12:13:21;;;;;;;;;;;6.50;99.90;;;;;;5082172;28;19925;-81
2022/01/14 12:15:56;;;;;;;;;;;6.50;99.90;;;;;;5080925;28;19925;-80
2022/01/14 12:18:41;;;;;;;;;;;6.50;99.90;;;;;;5081936;28;19930;-81
2022/01/14 12:21:08;;;;;;;;;;;6.50;99.90;;;;;;5082524;28;19955;-80
2022/01/14 12:23:34;;;;;;;;;;;6.50;99.90;;;;;;5082733;28;20433;-80
2022/01/14 12:26:13;;;;;;;;;;;6.50;99.90;;;;;;5082045;28;19924;-80
2022/01/14 12:28:40;;;;;;;;;;;6.50;99.90;;;;;;5082982;28;19928;-80
2022/01/14 12:31:08;;;;;;;;;;;6.40;99.90;;;;;;5080814;28;20402;-80
2022/01/14 12:33:39;;;;;;;;;;;6.40;99.90;;;;;;5081996;28;20341;-81
2022/01/14 12:36:09;;;;;;;;;;;6.50;99.90;;;;;;5083162;28;20282;-81
2022/01/14 12:38:35;;;;;;;;;;;6.50;99.90;;;;;;5084563;28;20028;-80
2022/01/14 12:41:02;;;;;;;;;;;6.50;99.90;;;;;;5083619;28;19925;-80
2022/01/14 12:43:29;;;;;;;;;;;6.50;99.90;;;;;;5084098;28;19924;-81
2022/01/14 12:46:13;;;;;;;;;;;6.60;99.90;;;;;;5083312;28;20391;-81
2022/01/14 12:48:51;;;;;;;;;;;6.60;99.90;;;;;;5082970;28;19925;-80
2022/01/14 12:51:19;;;;;;;;;;;6.60;99.90;;;;;;5082178;28;19924;-80
2022/01/14 12:54:04;;;;;;;;;;;6.60;99.90;;;;;;5080266;28;19928;-80
2022/01/14 12:56:32;;;;;;;;;;;6.60;99.90;;;;;;5080624;28;19925;-81
2022/01/14 12:59:00;;;;;;;;;;;6.70;99.90;;;;;;5083076;28;19924;-80
2022/01/14 13:01:37;;;;;;;;;;;6.70;99.90;;;;;;5081190;28;19932;-80
2022/01/14 13:04:08;;;;;;;;;;;6.70;99.90;;;;;;5083041;28;19968;-80
2022/01/14 13:06:45;;;;;;;;;;;6.70;99.90;;;;;;5093018;28;19924;-80
2022/01/14 13:09:12;;;;;;;;;;;6.70;99.90;;;;;;5092113;28;19924;-79
2022/01/14 13:11:49;;;;;;;;;;;6.70;99.90;;;;;;5092782;28;19924;-80
2022/01/14 13:14:19;;;;;;;;;;;6.70;99.90;;;;;;5086268;28;19931;-80
2022/01/14 13:16:46;;;;;;;;;;;6.70;99.90;;;;;;5085199;28;20371;-81
2022/01/14 13:19:24;;;;;;;;;;;6.70;99.90;;;;;;5084610;28;19947;-82
2022/01/14 13:21:50;;;;;;;;;;;6.70;99.90;;;;;;5088034;28;20387;-82
2022/01/14 13:24:21;;;;;;;;;;;6.70;99.90;;;;;;5083060;28;19924;-81
2022/01/14 13:26:58;;;;;;;;;;;6.70;99.90;;;;;;5086022;28;19924;-82
2022/01/14 13:29:24;;;;;;;;;;;6.70;99.90;;;;;;5080741;28;19932;-82
2022/01/14 13:31:51;;;;;;;;;;;6.70;99.90;;;;;;5080367;28;19946;-80
2022/01/14 13:34:17;;;;;;;;;;;6.70;99.90;;;;;;5080918;28;19931;-80
2022/01/14 13:36:45;;;;;;;;;;;6.60;99.90;;;;;;5080848;28;19929;-80
2022/01/14 13:39:12;;;;;;;;;;;6.70;99.90;;;;;;5083161;28;19925;-80
2022/01/14 13:41:40;;;;;;;;;;;6.70;99.90;;;;;;5093007;28;19924;-80
2022/01/14 13:44:14;;;;;;;;;;;6.70;99.90;;;;;;5096081;28;19950;-81
2022/01/14 13:46:45;;;;;;;;;;;6.70;99.90;;;;;;5095464;28;19924;-80
2022/01/14 13:49:18;;;;;;;;;;;6.70;99.90;;;;;;5082296;28;20311;-80
2022/01/14 13:51:47;;;;;;;;;;;6.70;99.90;;;;;;5082753;28;19925;-80
2022/01/14 13:54:16;;;;;;;;;;;6.60;99.90;;;;;;5081764;28;20464;-81
2022/01/14 13:56:43;;;;;;;;;;;6.60;99.90;;;;;;5082071;28;19931;-80
2022/01/14 13:59:09;;;;;;;;;;;6.60;99.90;;;;;;5081088;28;19924;-82
2022/01/14 14:01:36;;;;;;;;;;;6.60;99.90;;;;;;5081784;28;19925;-81
2022/01/14 14:04:07;;;;;;;;;;;6.60;99.90;;;;;;5088069;28;19925;-80
2022/01/14 14:06:39;;;;;;;;;;;6.60;99.90;;;;;;5089823;28;19951;-80
2022/01/14 14:09:12;;;;;;;;;;;6.60;99.90;;;;;;5090374;28;19932;-81
2022/01/14 14:17:11;;;;;;;;;;;6.60;99.90;;;;;;5080629;28;19978;-82
2022/01/14 14:19:48;;;;;;;;;;;6.50;99.90;;;;;;5081080;28;19932;-82
2022/01/14 14:22:16;;;;;;;;;;;6.50;99.90;;;;;;5082121;28;19935;-81
2022/01/14 14:24:55;;;;;;;;;;;6.50;99.90;;;;;;5080264;28;19924;-82
2022/01/14 14:27:22;;;;;;;;;;;6.50;99.90;;;;;;5079608;28;19997;-80
2022/01/14 14:29:49;;;;;;;;;;;6.40;99.90;;;;;;5079410;28;19950;-81
2022/01/14 14:32:17;;;;;;;;;;;6.60;99.90;;;;;;5079622;28;19925;-82
2022/01/14 14:34:43;;;;;;;;;;;6.50;99.90;;;;;;5079280;28;20395;-81
2022/01/14 14:37:10;;;;;;;;;;;6.50;99.90;;;;;;5079287;28;19925;-81
2022/01/14 14:39:36;;;;;;;;;;;6.60;99.90;;;;;;5079050;28;20337;-81
2022/01/14 14:42:04;;;;;;;;;;;6.50;99.90;;;;;;5079890;28;19947;-81
2022/01/14 14:44:31;;;;;;;;;;;6.50;99.90;;;;;;5080358;28;19947;-81
2022/01/14 14:46:58;;;;;;;;;;;6.50;99.90;;;;;;5082989;28;19925;-80
2022/01/14 14:49:24;;;;;;;;;;;6.50;99.90;;;;;;5084516;28;19946;-81
2022/01/14 14:51:51;;;;;;;;;;;6.60;99.90;;;;;;5093265;28;19935;-80
2022/01/14 14:54:17;;;;;;;;;;;6.50;99.90;;;;;;5097682;28;19908;-82
2022/01/14 14:56:44;;;;;;;;;;;6.50;99.90;;;;;;5097637;28;19920;-80
2022/01/14 14:59:13;;;;;;;;;;;6.50;99.90;;;;;;5097539;28;19924;-81
2022/01/14 15:01:43;;;;;;;;;;;6.50;99.90;;;;;;5096223;28;19908;-81
2022/01/14 15:04:09;;;;;;;;;;;6.50;99.90;;;;;;5098059;28;19951;-80
2022/01/14 15:06:36;;;;;;;;;;;6.50;99.90;;;;;;5096468;28;19925;-79
2022/01/14 15:09:03;;;;;;;;;;;6.50;99.90;;;;;;5095833;28;19924;-80
2022/01/14 15:11:29;;;;;;;;;;;6.50;99.90;;;;;;5096889;28;19913;-81
2022/01/14 15:13:56;;;;;;;;;;;6.50;99.90;;;;;;5095540;28;19951;-81
2022/01/14 15:16:48;;;;;;;;;;;6.40;99.90;;;;;;5094173;28;19932;-80
2022/01/14 15:19:14;;;;;;;;;;;6.50;99.90;;;;;;5090723;28;19928;-80
2022/01/14 15:21:41;;;;;;;;;;;6.50;99.90;;;;;;5086203;28;19931;-80
2022/01/14 15:24:07;;;;;;;;;;;6.50;99.90;;;;;;5087973;28;19947;-81
2022/01/14 15:26:34;;;;;;;;;;;6.50;99.90;;;;;;5086253;28;19978;-81
2022/01/14 15:29:00;;;;;;;;;;;6.50;99.90;;;;;;5086292;28;19925;-80
2022/01/14 15:31:28;;;;;;;;;;;6.50;99.90;;;;;;5092571;28;19925;-80
2022/01/14 15:33:57;;;;;;;;;;;6.50;99.90;;;;;;5094825;28;19925;-82
2022/01/14 15:36:23;;;;;;;;;;;6.50;99.90;;;;;;5094744;28;20425;-81